Time;durP1;ratioP1;P1;durP2;ratioP2;P2;SDS_P1;SDS_P2;PMS_P1;PMS_P2;Temp;Humidity;BMP_temperature;BMP_pressure;BME280_temperature;BME280_humidity;BME280_pressure;Samples;Min_cycle;Max_cycle;Signal;HPM_P1;HPM_P2
2022/02/07 00:00:16;;;;;;;7.82;1.48;;;5.20;87.90;;;;;;9177839;19;20026;-66
2022/02/07 00:03:32;;;;;;;5.32;1.10;;;5.20;87.80;;;;;;9180502;19;20022;-66
2022/02/07 00:06:37;;;;;;;7.32;1.50;;;5.10;87.80;;;;;;9180550;19;20011;-66
2022/02/07 00:09:42;;;;;;;5.93;1.35;;;5.10;87.80;;;;;;9179578;19;20055;-66
2022/02/07 00:12:49;;;;;;;8.57;1.50;;;5.10;87.70;;;;;;9181030;19;20515;-66
2022/02/07 00:15:54;;;;;;;9.20;1.40;;;5.10;87.70;;;;;;9183525;19;20042;-66
2022/02/07 00:18:59;;;;;;;12.80;1.58;;;5.10;87.70;;;;;;9177031;19;20047;-66
2022/02/07 00:22:05;;;;;;;10.25;1.50;;;5.00;87.50;;;;;;9180440;19;20052;-66
2022/02/07 00:25:11;;;;;;;16.77;2.45;;;5.00;87.50;;;;;;9180787;19;20017;-66
2022/02/07 00:28:19;;;;;;;13.55;1.92;;;5.00;87.50;;;;;;9180207;19;20068;-66
2022/02/07 00:31:24;;;;;;;12.25;2.30;;;4.90;87.50;;;;;;9180780;19;20496;-67
2022/02/07 00:34:29;;;;;;;14.90;1.63;;;4.90;87.50;;;;;;9178752;19;20075;-66
2022/02/07 00:37:35;;;;;;;15.35;1.70;;;4.90;87.50;;;;;;9177951;19;20018;-66
2022/02/07 00:40:59;;;;;;;16.88;2.83;;;4.90;87.50;;;;;;9176960;19;20028;-66
2022/02/07 00:44:12;;;;;;;8.23;1.90;;;4.90;87.60;;;;;;9181071;19;20360;-66
2022/02/07 00:47:18;;;;;;;11.67;1.60;;;4.80;87.50;;;;;;9180674;19;20435;-66
2022/02/07 00:50:24;;;;;;;11.35;2.03;;;4.80;87.60;;;;;;9179796;19;20007;-66
2022/02/07 00:53:31;;;;;;;10.13;1.25;;;4.80;87.50;;;;;;9177959;19;20763;-66
2022/02/07 00:56:36;;;;;;;12.48;1.85;;;4.80;87.50;;;;;;9179055;19;20014;-66
2022/02/07 00:59:43;;;;;;;13.10;1.70;;;4.80;87.50;;;;;;9176025;19;20026;-66
2022/02/07 01:02:49;;;;;;;7.70;2.03;;;4.80;87.60;;;;;;9176739;19;20015;-66
2022/02/07 01:05:55;;;;;;;13.50;1.95;;;4.80;87.50;;;;;;9178697;19;20014;-67
2022/02/07 01:09:12;;;;;;;9.40;1.17;;;4.80;87.50;;;;;;9174100;19;20026;-67
2022/02/07 01:12:38;;;;;;;8.52;1.80;;;4.70;87.40;;;;;;9174213;19;20018;-66
2022/02/07 01:16:10;;;;;;;8.75;1.85;;;4.70;87.40;;;;;;9172544;19;20074;-67
2022/02/07 01:19:45;;;;;;;15.07;1.98;;;4.70;87.40;;;;;;9167767;19;20019;-66
2022/02/07 01:23:09;;;;;;;13.15;1.85;;;4.70;87.40;;;;;;9171953;19;20018;-66
2022/02/07 01:46:27;;;;;;;9.90;1.40;;;4.60;87.50;;;;;;9172706;19;20460;-66
2022/02/07 01:50:17;;;;;;;10.85;1.90;;;4.60;87.50;;;;;;9173086;19;20006;-66
2022/02/07 01:53:33;;;;;;;18.27;2.53;;;4.60;87.50;;;;;;9174548;19;20139;-66
2022/02/07 01:56:44;;;;;;;18.52;2.40;;;4.60;87.50;;;;;;9173401;19;20473;-66
2022/02/07 01:59:53;;;;;;;15.57;2.10;;;4.60;87.60;;;;;;9165901;19;20029;-66
2022/02/07 02:02:59;;;;;;;8.43;1.65;;;4.60;87.50;;;;;;9166904;19;20018;-66
2022/02/07 02:06:15;;;;;;;9.80;1.65;;;4.60;87.60;;;;;;9171093;19;20014;-66
2022/02/07 02:09:33;;;;;;;5.15;0.77;;;4.60;87.50;;;;;;9170211;19;20018;-66
2022/02/07 02:12:53;;;;;;;5.28;0.85;;;4.50;87.50;;;;;;9172136;19;20052;-66
2022/02/07 02:16:06;;;;;;;7.20;1.52;;;4.50;87.60;;;;;;9032103;19;2716684;-66
2022/02/07 02:32:34;;;;;;;6.72;1.00;;;4.50;87.70;;;;;;9172624;19;20011;-66
2022/02/07 02:33:21;;;;;;;11.80;1.58;;;4.50;87.60;;;;;;9174308;19;20118;-66
2022/02/07 02:36:33;;;;;;;7.18;1.15;;;4.50;87.60;;;;;;9173785;19;20078;-66
2022/02/07 02:46:22;;;;;;;11.60;2.55;;;4.60;87.70;;;;;;9172084;19;20015;-66
2022/02/07 02:49:34;;;;;;;11.82;2.00;;;4.50;88.20;;;;;;9173586;19;20479;-66
2022/02/07 02:52:39;;;;;;;9.73;2.70;;;4.50;87.70;;;;;;9173341;19;20018;-66
2022/02/07 02:55:50;;;;;;;12.43;2.05;;;4.50;87.70;;;;;;9169537;19;20010;-66
2022/02/07 02:58:57;;;;;;;18.27;3.00;;;4.50;87.70;;;;;;9169712;19;20021;-66
2022/02/07 03:02:08;;;;;;;12.13;2.28;;;4.50;87.70;;;;;;9168632;19;20014;-66
2022/02/07 03:05:15;;;;;;;13.27;2.08;;;4.50;87.70;;;;;;9172933;19;20018;-67
2022/02/07 03:08:21;;;;;;;15.77;1.95;;;4.60;87.80;;;;;;9169888;19;20081;-66
2022/02/07 03:11:29;;;;;;;14.68;1.60;;;4.60;87.90;;;;;;9171323;19;20030;-66
2022/02/07 03:14:43;;;;;;;13.15;1.63;;;4.60;87.90;;;;;;9178050;19;20014;-66
2022/02/07 03:17:47;;;;;;;10.10;1.25;;;4.60;87.90;;;;;;9177171;19;20368;-66
2022/02/07 03:20:52;;;;;;;13.98;2.58;;;4.60;87.90;;;;;;9180208;19;20022;-67
2022/02/07 03:23:57;;;;;;;11.10;1.83;;;4.60;87.90;;;;;;9182898;19;20093;-66
2022/02/07 03:27:06;;;;;;;15.48;2.13;;;4.70;88.00;;;;;;9177090;19;20021;-66
2022/02/07 03:30:15;;;;;;;9.05;1.98;;;4.70;88.00;;;;;;9177705;19;20022;-66
2022/02/07 03:33:27;;;;;;;15.30;1.80;;;4.70;88.00;;;;;;9178898;19;20026;-66
2022/02/07 03:36:33;;;;;;;10.93;1.75;;;4.80;88.00;;;;;;9179571;19;20010;-66
2022/02/07 03:39:42;;;;;;;16.63;2.33;;;4.80;88.00;;;;;;9180384;19;20025;-66
2022/02/07 03:42:52;;;;;;;10.57;2.67;;;4.80;88.00;;;;;;9176694;19;20010;-66
2022/02/07 03:45:57;;;;;;;12.80;2.80;;;4.80;87.90;;;;;;9177881;19;20011;-66
2022/02/07 03:49:02;;;;;;;12.48;2.30;;;4.90;88.00;;;;;;9178649;19;20014;-66
2022/02/07 03:52:10;;;;;;;11.90;2.88;;;4.90;87.90;;;;;;9179785;19;20014;-66
2022/02/07 03:55:17;;;;;;;16.15;2.15;;;4.90;87.90;;;;;;9180270;19;20041;-67
2022/02/07 03:58:24;;;;;;;11.38;1.80;;;4.90;88.00;;;;;;9177777;19;20555;-66
2022/02/07 04:01:33;;;;;;;16.42;1.80;;;4.90;88.00;;;;;;9176327;19;20117;-66
2022/02/07 04:04:40;;;;;;;12.63;2.55;;;5.00;88.10;;;;;;9177404;19;20348;-66
2022/02/07 04:07:46;;;;;;;7.68;1.77;;;5.00;88.10;;;;;;9178743;19;20015;-66
2022/02/07 04:11:00;;;;;;;9.88;1.58;;;5.00;88.10;;;;;;9179012;19;20011;-67
2022/02/07 04:14:10;;;;;;;10.93;2.05;;;5.00;88.10;;;;;;9178648;19;20021;-66
2022/02/07 04:17:21;;;;;;;10.25;1.83;;;5.10;88.10;;;;;;9171787;19;20061;-66
2022/02/07 04:20:28;;;;;;;10.90;1.85;;;5.10;88.10;;;;;;9176095;19;20023;-66
2022/02/07 04:23:34;;;;;;;14.05;2.20;;;5.10;88.10;;;;;;9174573;19;20018;-67
2022/02/07 04:27:14;;;;;;;9.48;1.67;;;5.20;88.20;;;;;;9176424;19;20365;-66
2022/02/07 04:30:22;;;;;;;16.42;1.83;;;5.20;88.10;;;;;;9177039;19;20022;-66
2022/02/07 04:33:27;;;;;;;22.38;2.15;;;5.30;88.20;;;;;;9179369;19;20026;-67
2022/02/07 04:36:32;;;;;;;10.57;2.05;;;5.30;88.20;;;;;;9175714;19;20016;-66
2022/02/07 04:39:37;;;;;;;18.20;2.65;;;5.30;88.10;;;;;;9177795;19;20030;-66
2022/02/07 04:42:50;;;;;;;12.65;2.28;;;5.30;88.10;;;;;;9174910;19;20010;-67
2022/02/07 04:46:08;;;;;;;13.07;1.90;;;5.40;88.20;;;;;;9177427;19;20010;-66
2022/02/07 04:52:57;;;;;;;20.80;3.25;;;5.40;88.20;;;;;;9177498;19;20634;-66
2022/02/07 04:56:17;;;;;;;18.05;2.63;;;5.40;88.10;;;;;;9174570;19;20410;-66
2022/02/07 04:59:37;;;;;;;19.17;3.08;;;5.40;88.10;;;;;;9174502;19;20018;-66
2022/02/07 05:02:58;;;;;;;19.73;3.67;;;5.50;88.20;;;;;;9174475;19;20053;-66
2022/02/07 05:16:16;;;;;;;21.80;2.65;;;5.60;88.20;;;;;;9176643;19;20018;-66
2022/02/07 05:19:24;;;;;;;19.88;3.42;;;5.60;88.20;;;;;;9171490;19;20027;-67
2022/02/07 05:23:01;;;;;;;24.25;3.50;;;5.60;88.20;;;;;;9172716;19;20015;-66
2022/02/07 05:26:38;;;;;;;17.20;2.60;;;5.60;88.20;;;;;;9171983;19;20397;-66
2022/02/07 05:29:53;;;;;;;23.48;3.08;;;5.60;88.20;;;;;;9173741;19;20026;-66
2022/02/07 05:33:16;;;;;;;19.65;3.30;;;5.60;88.20;;;;;;9175764;19;20019;-67
2022/02/07 05:36:38;;;;;;;22.35;3.20;;;5.60;88.20;;;;;;9173791;19;20484;-66
2022/02/07 05:40:07;;;;;;;24.42;3.40;;;5.70;88.20;;;;;;9175704;19;20014;-67
2022/02/07 05:43:46;;;;;;;20.02;3.05;;;5.70;88.20;;;;;;9174624;19;20010;-66
2022/02/07 05:47:08;;;;;;;15.15;2.97;;;5.60;88.10;;;;;;9174967;19;20025;-67
2022/02/07 05:50:13;;;;;;;21.77;2.85;;;5.70;88.20;;;;;;9176360;19;20512;-66
2022/02/07 05:53:55;;;;;;;19.70;3.63;;;5.70;88.20;;;;;;9172992;19;20018;-67
2022/02/07 05:57:18;;;;;;;11.98;2.47;;;5.70;88.10;;;;;;9175070;19;20016;-67
2022/02/07 06:00:49;;;;;;;28.30;4.25;;;5.70;88.10;;;;;;9172302;19;20010;-67
2022/02/07 06:03:57;;;;;;;19.08;2.83;;;5.60;88.10;;;;;;9173695;19;20074;-67
2022/02/07 06:07:03;;;;;;;18.73;2.67;;;5.60;88.10;;;;;;9174418;19;20366;-67
2022/02/07 06:10:11;;;;;;;21.58;3.33;;;5.60;88.10;;;;;;9172831;19;20015;-67
2022/02/07 06:13:19;;;;;;;25.02;3.97;;;5.60;88.10;;;;;;9171791;19;20022;-67
2022/02/07 06:16:34;;;;;;;17.50;3.15;;;5.60;88.10;;;;;;9172233;19;20035;-67
2022/02/07 06:19:41;;;;;;;19.67;3.05;;;5.60;88.00;;;;;;9168136;19;20764;-67
2022/02/07 06:22:48;;;;;;;23.17;2.92;;;5.60;88.00;;;;;;9172904;19;20018;-67
2022/02/07 06:25:57;;;;;;;24.52;3.67;;;5.60;88.10;;;;;;9174156;19;20006;-67
2022/02/07 06:29:07;;;;;;;17.85;3.28;;;5.60;88.10;;;;;;9173809;19;20480;-67
2022/02/07 06:32:15;;;;;;;23.80;3.15;;;5.60;88.10;;;;;;9170805;19;20030;-67
2022/02/07 06:35:20;;;;;;;18.58;3.33;;;5.60;88.20;;;;;;9172148;19;20022;-67
2022/02/07 06:38:26;;;;;;;26.02;3.60;;;5.60;88.20;;;;;;9172796;19;20018;-67
2022/02/07 06:41:33;;;;;;;26.15;3.85;;;5.60;88.20;;;;;;9172521;19;20022;-68
2022/02/07 06:44:40;;;;;;;21.95;3.80;;;5.60;88.20;;;;;;9173737;19;20353;-67
2022/02/07 06:47:46;;;;;;;22.80;2.95;;;5.60;88.20;;;;;;9175726;19;20023;-67
2022/02/07 06:50:52;;;;;;;18.95;2.63;;;5.60;88.20;;;;;;9180780;19;20082;-67
2022/02/07 06:53:57;;;;;;;22.58;3.30;;;5.60;88.30;;;;;;9182797;19;20025;-67
2022/02/07 06:57:07;;;;;;;11.68;2.28;;;5.60;88.30;;;;;;9185826;19;20006;-67
2022/02/07 07:00:13;;;;;;;7.35;1.70;;;5.70;88.30;;;;;;9184184;19;20105;-67
2022/02/07 07:03:20;;;;;;;8.18;1.55;;;5.70;88.20;;;;;;9179373;19;20014;-67
2022/02/07 07:06:26;;;;;;;9.13;1.90;;;5.60;88.10;;;;;;9182027;19;20336;-67
2022/02/07 07:09:43;;;;;;;11.13;2.22;;;5.60;88.00;;;;;;9180746;19;20023;-67
2022/02/07 07:13:00;;;;;;;13.93;2.70;;;5.60;88.00;;;;;;9182884;19;20417;-67
2022/02/07 07:16:15;;;;;;;23.50;3.13;;;5.70;88.00;;;;;;9178051;19;20014;-67
2022/02/07 07:19:26;;;;;;;18.52;3.17;;;5.60;88.00;;;;;;9169687;19;20115;-67
2022/02/07 07:22:32;;;;;;;17.85;2.42;;;5.60;88.00;;;;;;9172777;19;20134;-67
2022/02/07 07:25:39;;;;;;;23.05;2.35;;;5.60;88.00;;;;;;9174445;19;20061;-67
2022/02/07 07:28:47;;;;;;;23.10;3.83;;;5.60;88.00;;;;;;9179882;19;20029;-67
2022/02/07 07:31:58;;;;;;;18.98;3.70;;;5.60;88.00;;;;;;9176796;19;20014;-67
2022/02/07 07:35:07;;;;;;;18.85;2.55;;;5.60;88.10;;;;;;9175683;19;20029;-67
2022/02/07 07:38:12;;;;;;;20.30;2.75;;;5.60;88.00;;;;;;9172629;19;20628;-67
2022/02/07 07:41:20;;;;;;;17.48;3.38;;;5.60;88.00;;;;;;9175762;19;20468;-67
2022/02/07 07:44:39;;;;;;;16.17;3.00;;;5.50;88.00;;;;;;9176434;19;20029;-67
2022/02/07 07:47:57;;;;;;;22.00;3.67;;;5.50;88.00;;;;;;9180726;19;20018;-67
2022/02/07 07:51:24;;;;;;;34.75;4.05;;;5.50;88.00;;;;;;9181487;19;20022;-68
2022/02/07 07:54:53;;;;;;;13.73;2.42;;;5.50;88.10;;;;;;9180599;19;20026;-67
2022/02/07 08:01:40;;;;;;;21.45;3.97;;;5.50;88.10;;;;;;9176992;19;20019;-69
2022/02/07 08:04:50;;;;;;;14.70;2.53;;;5.50;88.10;;;;;;9179773;19;20029;-69
2022/02/07 08:08:07;;;;;;;16.73;2.47;;;5.50;88.10;;;;;;9178065;19;20025;-69
2022/02/07 08:11:15;;;;;;;17.15;2.92;;;5.50;88.20;;;;;;9180726;19;20048;-68
2022/02/07 08:14:35;;;;;;;20.90;2.72;;;5.50;88.20;;;;;;9180419;19;20094;-68
2022/02/07 08:18:02;;;;;;;18.85;3.50;;;5.50;88.20;;;;;;9178243;19;20026;-69
2022/02/07 08:21:07;;;;;;;14.48;2.92;;;5.50;88.20;;;;;;9180243;19;20014;-68
2022/02/07 08:24:12;;;;;;;18.75;3.00;;;5.60;88.30;;;;;;9181175;19;20022;-68
2022/02/07 08:27:17;;;;;;;22.27;3.08;;;5.60;88.30;;;;;;9177665;19;20065;-69
2022/02/07 08:30:22;;;;;;;23.38;4.38;;;5.60;88.30;;;;;;9181426;19;20033;-69
2022/02/07 08:33:31;;;;;;;19.52;3.17;;;5.60;88.90;;;;;;9180082;19;20011;-69
2022/02/07 08:36:36;;;;;;;25.77;3.60;;;5.60;88.30;;;;;;9179365;19;20018;-69
2022/02/07 08:39:49;;;;;;;19.10;3.15;;;5.70;88.40;;;;;;9177211;19;20010;-68
2022/02/07 08:42:54;;;;;;;19.88;2.92;;;5.70;88.40;;;;;;9176733;19;20026;-68
2022/02/07 08:45:59;;;;;;;20.45;3.00;;;5.70;88.40;;;;;;9181474;19;20368;-68
2022/02/07 08:49:06;;;;;;;23.25;2.58;;;5.70;88.50;;;;;;9180690;19;20052;-69
2022/02/07 08:52:12;;;;;;;22.35;3.58;;;5.80;88.60;;;;;;9177802;19;20023;-68
2022/02/07 08:55:25;;;;;;;22.25;4.30;;;5.90;88.70;;;;;;9179602;19;20456;-68
2022/02/07 08:58:38;;;;;;;17.95;2.65;;;5.90;88.60;;;;;;9177052;19;20047;-68
2022/02/07 09:02:04;;;;;;;33.28;4.53;;;6.00;88.70;;;;;;9180833;19;20735;-68
2022/02/07 09:05:33;;;;;;;19.33;3.42;;;6.10;88.70;;;;;;9178336;19;20546;-68
2022/02/07 09:08:52;;;;;;;22.33;3.78;;;6.10;88.60;;;;;;9178624;19;20011;-68
2022/02/07 09:11:57;;;;;;;20.25;3.60;;;6.20;88.70;;;;;;9176245;19;20021;-68
2022/02/07 09:15:29;;;;;;;19.83;3.42;;;6.20;88.60;;;;;;9174550;19;20027;-68
2022/02/07 09:18:34;;;;;;;23.83;3.15;;;6.30;88.70;;;;;;9170859;19;20062;-69
2022/02/07 09:21:42;;;;;;;24.73;3.15;;;6.40;88.70;;;;;;9176652;19;20475;-68
2022/02/07 09:24:50;;;;;;;16.17;2.80;;;6.40;88.80;;;;;;9175240;19;20022;-68
2022/02/07 09:27:55;;;;;;;18.48;2.97;;;6.50;88.80;;;;;;9175317;19;20372;-68
2022/02/07 09:31:00;;;;;;;17.30;4.07;;;6.60;88.80;;;;;;9171622;19;20014;-68
2022/02/07 09:34:05;;;;;;;21.23;2.85;;;6.70;88.90;;;;;;9173048;19;20024;-68
2022/02/07 09:37:13;;;;;;;21.02;3.60;;;6.70;88.90;;;;;;9174014;19;20022;-67
2022/02/07 09:40:20;;;;;;;21.73;3.22;;;6.90;88.90;;;;;;9176908;19;20098;-67
2022/02/07 09:43:31;;;;;;;24.90;3.42;;;6.90;88.80;;;;;;9177279;19;20053;-67
2022/02/07 09:46:43;;;;;;;19.83;3.47;;;7.00;88.80;;;;;;9174306;19;20515;-67
2022/02/07 09:49:49;;;;;;;26.58;3.22;;;7.10;88.90;;;;;;9174425;19;20025;-68
2022/02/07 09:52:57;;;;;;;20.83;3.53;;;7.20;88.90;;;;;;9174026;19;20026;-67
2022/02/07 09:56:02;;;;;;;21.95;3.53;;;7.30;88.80;;;;;;9173527;19;20493;-67
2022/02/07 09:59:08;;;;;;;24.55;3.47;;;7.40;88.80;;;;;;9176918;19;20022;-69
2022/02/07 10:02:27;;;;;;;21.88;2.70;;;7.50;88.80;;;;;;9171432;19;20479;-67
2022/02/07 10:05:36;;;;;;;19.83;3.45;;;7.60;88.70;;;;;;9170007;19;20779;-67
2022/02/07 10:08:53;;;;;;;20.77;3.60;;;7.70;88.60;;;;;;9171431;19;20025;-67
2022/02/07 10:12:23;;;;;;;28.45;3.78;;;7.80;88.60;;;;;;9171177;19;20496;-67
2022/02/07 10:15:37;;;;;;;29.60;3.53;;;7.90;88.60;;;;;;9173662;19;20025;-67
2022/02/07 10:18:55;;;;;;;;;;;8.00;88.70;;;;;;9171042;19;20018;-67
2022/02/07 10:22:40;;;;;;;19.50;3.83;;;8.10;88.60;;;;;;9175636;19;20272;-67
2022/02/07 10:39:14;;;;;;;23.73;3.63;;;8.60;88.10;;;;;;9182429;19;20018;-67
2022/02/07 10:42:44;;;;;;;19.25;3.03;;;8.60;88.00;;;;;;9183473;19;20367;-67
2022/02/07 10:46:01;;;;;;;17.02;2.75;;;8.70;88.00;;;;;;9184517;19;20017;-67
2022/02/07 10:49:11;;;;;;;18.90;3.15;;;8.80;87.80;;;;;;9185120;19;20376;-67
2022/02/07 10:52:16;;;;;;;14.38;3.08;;;8.80;87.60;;;;;;9182282;19;20014;-68
2022/02/07 10:55:23;;;;;;;28.00;4.35;;;8.90;87.60;;;;;;9182509;19;20342;-68
2022/02/07 10:58:32;;;;;;;19.58;3.08;;;8.90;87.40;;;;;;9182424;19;20345;-68
2022/02/07 11:02:03;;;;;;;16.73;2.55;;;9.00;87.40;;;;;;9183927;19;20029;-68
2022/02/07 11:05:12;;;;;;;22.05;3.33;;;9.00;87.30;;;;;;9180477;19;21078;-68
2022/02/07 11:08:26;;;;;;;24.58;3.65;;;9.10;87.20;;;;;;9183578;19;20368;-68
2022/02/07 11:15:12;;;;;;;;;;;9.10;86.80;;;;;;9181256;19;20045;-68
2022/02/07 11:18:31;;;;;;;20.50;3.05;;;9.00;86.80;;;;;;9177682;19;20432;-67
2022/02/07 11:21:39;;;;;;;17.92;2.53;;;9.00;86.80;;;;;;9183121;19;20014;-67
2022/02/07 11:25:03;;;;;;;18.58;3.45;;;9.00;86.80;;;;;;9183379;19;20480;-69
2022/02/07 11:28:24;;;;;;;18.13;3.08;;;9.00;86.60;;;;;;9181971;19;20030;-67
2022/02/07 11:31:42;;;;;;;22.83;3.35;;;9.10;86.70;;;;;;9182159;19;20029;-67
2022/02/07 11:34:51;;;;;;;22.77;3.45;;;9.00;86.50;;;;;;9179547;19;20023;-67
2022/02/07 11:38:14;;;;;;;20.27;2.80;;;9.00;86.50;;;;;;9179827;19;20014;-68
2022/02/07 11:41:19;;;;;;;16.63;2.78;;;9.00;86.20;;;;;;9181147;19;20463;-67
2022/02/07 11:44:28;;;;;;;29.05;3.42;;;9.00;86.30;;;;;;9180467;19;20015;-67
2022/02/07 11:47:36;;;;;;;14.98;3.17;;;9.00;86.20;;;;;;9183111;19;20510;-67
2022/02/07 11:50:46;;;;;;;17.00;3.17;;;8.90;86.10;;;;;;9182741;19;20022;-67
2022/02/07 11:53:53;;;;;;;21.65;3.50;;;8.90;86.10;;;;;;9174117;19;20058;-67
2022/02/07 11:57:21;;;;;;;22.15;3.35;;;8.90;86.00;;;;;;9175254;19;20423;-67
2022/02/07 12:00:35;;;;;;;15.65;3.15;;;8.80;85.80;;;;;;9177117;19;20011;-67
2022/02/07 12:03:43;;;;;;;14.55;2.65;;;8.80;85.90;;;;;;9177832;19;20014;-67
2022/02/07 12:06:48;;;;;;;15.45;2.75;;;8.80;86.10;;;;;;9181777;19;20357;-68
2022/02/07 12:10:37;;;;;;;18.73;2.80;;;8.80;86.10;;;;;;9176865;19;20389;-67
2022/02/07 12:13:44;;;;;;;23.17;3.97;;;8.80;85.80;;;;;;9179564;19;20041;-67
2022/02/07 12:16:50;;;;;;;20.35;3.53;;;8.80;86.00;;;;;;9176469;19;20010;-68
2022/02/07 12:20:07;;;;;;;25.13;4.13;;;8.80;86.00;;;;;;9178210;19;20021;-67
2022/02/07 12:23:13;;;;;;;24.98;3.58;;;8.80;85.80;;;;;;9178852;19;20026;-67
2022/02/07 12:26:18;;;;;;;16.65;2.92;;;8.90;86.10;;;;;;9177572;19;20019;-68
2022/02/07 12:29:48;;;;;;;15.13;2.45;;;8.90;86.00;;;;;;9181152;19;20033;-67
2022/02/07 12:32:52;;;;;;;14.52;1.85;;;8.90;86.00;;;;;;9176219;19;20052;-67
2022/02/07 12:36:20;;;;;;;20.05;3.10;;;9.00;86.00;;;;;;9177248;19;20036;-67
2022/02/07 12:39:26;;;;;;;17.33;3.75;;;9.00;85.90;;;;;;9177323;19;20022;-68
2022/02/07 12:42:31;;;;;;;17.00;2.80;;;9.10;85.90;;;;;;9177371;19;20462;-68
2022/02/07 12:45:37;;;;;;;12.77;2.55;;;9.10;85.70;;;;;;9170434;19;20414;-67
2022/02/07 12:48:50;;;;;;;17.58;3.03;;;9.10;85.50;;;;;;9179328;19;20011;-67
2022/02/07 12:51:58;;;;;;;19.25;2.72;;;9.10;85.40;;;;;;9173658;19;20018;-67
2022/02/07 12:55:03;;;;;;;19.55;3.03;;;9.20;85.30;;;;;;9173021;19;20022;-67
2022/02/07 12:58:07;;;;;;;11.27;2.03;;;9.20;85.20;;;;;;9177069;19;20025;-67
2022/02/07 13:01:25;;;;;;;21.77;2.85;;;9.10;85.00;;;;;;9174723;19;20496;-67
2022/02/07 13:04:30;;;;;;;15.45;2.63;;;9.10;84.60;;;;;;9177301;19;20053;-68
2022/02/07 13:07:42;;;;;;;17.73;2.78;;;9.10;84.80;;;;;;9176164;19;20019;-67
2022/02/07 13:10:54;;;;;;;19.70;2.65;;;9.10;84.70;;;;;;9173213;19;20404;-67
2022/02/07 13:13:59;;;;;;;18.42;2.53;;;9.10;84.60;;;;;;9174280;19;20019;-67
2022/02/07 13:17:07;;;;;;;18.23;2.60;;;9.00;84.80;;;;;;9175069;19;20044;-67
2022/02/07 13:20:13;;;;;;;10.90;1.75;;;9.00;84.70;;;;;;9177664;19;20023;-67
2022/02/07 13:23:22;;;;;;;17.75;2.08;;;9.00;84.60;;;;;;9177553;19;20392;-67
2022/02/07 13:26:27;;;;;;;18.00;2.63;;;9.00;84.50;;;;;;9173853;19;20023;-69
2022/02/07 13:29:41;;;;;;;14.55;2.80;;;9.00;84.50;;;;;;9176906;19;20015;-67
2022/02/07 13:32:46;;;;;;;14.73;2.13;;;9.00;84.40;;;;;;9177532;19;20088;-68
2022/02/07 13:35:55;;;;;;;10.32;2.40;;;8.90;84.30;;;;;;9178573;19;20015;-68
2022/02/07 13:39:08;;;;;;;13.45;2.05;;;8.90;84.20;;;;;;9175421;19;20026;-67
2022/02/07 13:42:15;;;;;;;15.65;2.30;;;8.90;84.10;;;;;;9175270;19;20357;-67
2022/02/07 13:45:22;;;;;;;10.32;2.17;;;8.90;84.20;;;;;;9173760;19;20358;-67
2022/02/07 13:48:29;;;;;;;13.55;2.60;;;8.90;84.20;;;;;;9174907;19;20054;-67
2022/02/07 13:51:34;;;;;;;7.18;1.67;;;8.90;84.10;;;;;;9175786;19;20367;-67
2022/02/07 13:54:42;;;;;;;12.57;2.28;;;8.90;84.10;;;;;;9177345;19;20007;-67
2022/02/07 13:58:06;;;;;;;15.60;2.80;;;8.90;84.00;;;;;;9175285;19;20010;-67
2022/02/07 14:01:13;;;;;;;13.13;2.22;;;8.90;83.80;;;;;;9175300;19;20494;-67
2022/02/07 14:04:22;;;;;;;11.50;2.67;;;8.90;84.10;;;;;;9175182;19;20023;-67
2022/02/07 14:07:27;;;;;;;10.02;2.17;;;8.90;84.00;;;;;;9174179;19;20043;-67
2022/02/07 14:10:38;;;;;;;18.52;2.45;;;8.90;83.90;;;;;;9171857;19;20022;-67
2022/02/07 14:13:45;;;;;;;17.05;2.13;;;8.90;83.80;;;;;;9174834;19;20018;-67
2022/02/07 14:16:49;;;;;;;19.05;2.97;;;8.90;83.80;;;;;;9168754;19;20019;-68
2022/02/07 14:19:59;;;;;;;20.17;2.40;;;8.90;83.80;;;;;;9173164;19;20025;-67
2022/02/07 14:23:05;;;;;;;10.45;1.90;;;8.80;83.70;;;;;;9172539;19;20404;-67
2022/02/07 14:26:16;;;;;;;12.48;2.22;;;8.80;83.70;;;;;;9173013;19;20022;-67
2022/02/07 14:29:21;;;;;;;8.77;2.05;;;8.80;83.70;;;;;;9176583;19;20014;-67
2022/02/07 14:32:46;;;;;;;22.85;2.83;;;8.80;83.70;;;;;;9176275;19;20018;-67
2022/02/07 14:35:51;;;;;;;18.10;2.70;;;8.80;83.70;;;;;;9172897;19;20018;-67
2022/02/07 14:38:57;;;;;;;11.43;2.33;;;8.80;83.60;;;;;;9172188;19;20027;-67
2022/02/07 14:42:07;;;;;;;15.73;2.20;;;8.80;83.60;;;;;;9172568;19;20014;-68
2022/02/07 14:45:18;;;;;;;13.57;2.50;;;8.90;83.50;;;;;;9174775;19;20470;-67
2022/02/07 14:48:23;;;;;;;10.85;2.90;;;8.80;83.50;;;;;;9173553;19;20392;-67
2022/02/07 14:51:28;;;;;;;14.63;3.10;;;8.90;83.40;;;;;;9170674;19;20018;-67
2022/02/07 14:54:35;;;;;;;15.50;2.60;;;8.80;83.30;;;;;;9169795;19;20048;-67
2022/02/07 14:57:42;;;;;;;13.35;2.92;;;8.90;83.30;;;;;;9165164;19;20456;-67
2022/02/07 15:00:48;;;;;;;13.23;2.42;;;8.90;83.20;;;;;;9172513;19;20029;-67
2022/02/07 15:03:54;;;;;;;13.55;2.83;;;8.90;83.20;;;;;;9174947;19;20081;-67
2022/02/07 15:06:59;;;;;;;6.82;1.50;;;8.90;83.20;;;;;;9169011;19;20015;-67
2022/02/07 15:10:05;;;;;;;13.02;2.05;;;8.90;83.10;;;;;;9177959;19;20034;-67
2022/02/07 15:13:12;;;;;;;12.77;2.85;;;8.90;83.00;;;;;;9179406;19;20018;-68
2022/02/07 15:16:17;;;;;;;15.43;1.83;;;8.80;82.80;;;;;;9181553;19;20049;-67
2022/02/07 15:19:24;;;;;;;10.32;2.17;;;8.80;82.80;;;;;;9178435;19;20022;-69
2022/02/07 15:22:30;;;;;;;10.18;1.90;;;8.80;82.80;;;;;;9179209;19;20013;-67
2022/02/07 15:25:36;;;;;;;19.10;2.42;;;8.80;82.80;;;;;;9178895;19;20365;-67
2022/02/07 15:28:47;;;;;;;11.43;2.53;;;8.70;82.70;;;;;;9182159;19;20025;-67
2022/02/07 15:31:59;;;;;;;8.90;1.77;;;8.70;82.60;;;;;;9182069;19;20014;-67
2022/02/07 15:35:07;;;;;;;13.75;2.00;;;8.70;82.60;;;;;;9184264;19;20077;-67
2022/02/07 15:38:14;;;;;;;8.60;2.13;;;8.60;82.60;;;;;;9180474;19;20021;-67
2022/02/07 15:41:19;;;;;;;11.05;2.13;;;8.60;82.60;;;;;;9177386;19;20014;-67
2022/02/07 15:44:26;;;;;;;15.73;1.73;;;8.60;82.60;;;;;;9179081;19;20022;-67
2022/02/07 15:47:34;;;;;;;16.80;2.33;;;8.60;82.60;;;;;;9172578;19;20025;-66
2022/02/07 15:50:40;;;;;;;12.55;2.83;;;8.50;82.50;;;;;;9180795;19;20054;-67
2022/02/07 15:53:44;;;;;;;14.48;1.80;;;8.50;82.60;;;;;;9176132;19;20018;-67
2022/02/07 15:56:49;;;;;;;23.08;3.33;;;8.50;82.50;;;;;;9177659;19;20022;-67
2022/02/07 15:59:57;;;;;;;12.48;1.90;;;8.40;82.50;;;;;;9178270;19;20487;-67
2022/02/07 16:03:02;;;;;;;22.88;3.05;;;8.40;82.50;;;;;;9178759;19;20365;-67
2022/02/07 16:06:07;;;;;;;10.52;2.03;;;8.40;82.50;;;;;;9181207;19;20029;-67
2022/02/07 16:09:12;;;;;;;8.82;1.60;;;8.40;82.40;;;;;;9178534;19;20026;-68
2022/02/07 16:12:19;;;;;;;2.92;1.08;;;8.40;82.40;;;;;;9176458;19;20025;-67
2022/02/07 16:15:26;;;;;;;6.53;1.90;;;8.30;82.30;;;;;;9178601;19;20092;-67
2022/02/07 16:18:34;;;;;;;9.60;1.60;;;8.30;82.30;;;;;;9172271;19;20014;-66
2022/02/07 16:21:39;;;;;;;12.30;1.80;;;8.30;82.30;;;;;;9172297;19;20018;-66
2022/02/07 16:24:45;;;;;;;12.07;1.60;;;8.20;82.30;;;;;;9167240;19;20021;-66
2022/02/07 16:27:50;;;;;;;7.45;2.17;;;8.20;82.30;;;;;;9170528;19;20664;-67
2022/02/07 16:30:58;;;;;;;12.00;1.83;;;8.20;82.20;;;;;;9169269;19;20055;-66
2022/02/07 16:34:03;;;;;;;13.18;3.83;;;8.10;82.10;;;;;;9167176;19;20639;-66
2022/02/07 16:37:11;;;;;;;14.20;2.75;;;8.10;82.20;;;;;;9175402;19;20011;-66
2022/02/07 16:40:16;;;;;;;16.38;2.03;;;8.10;82.20;;;;;;9172928;19;20014;-66
2022/02/07 16:43:26;;;;;;;13.02;1.77;;;8.00;82.10;;;;;;9174483;19;20018;-67
2022/02/07 16:46:37;;;;;;;8.30;2.15;;;8.10;82.20;;;;;;9173973;19;20487;-67
2022/02/07 16:49:42;;;;;;;9.98;1.75;;;8.00;82.10;;;;;;9177032;19;20372;-67
2022/02/07 16:52:47;;;;;;;18.35;2.08;;;8.00;82.20;;;;;;9176365;19;20015;-67
2022/02/07 16:55:53;;;;;;;15.07;3.90;;;8.00;82.20;;;;;;9174365;19;20381;-67
2022/02/07 16:58:59;;;;;;;17.27;4.63;;;8.00;82.20;;;;;;9172111;19;20011;-67
2022/02/07 17:02:07;;;;;;;12.63;2.33;;;7.90;82.20;;;;;;9174076;19;20022;-67
2022/02/07 17:05:12;;;;;;;11.65;2.53;;;7.90;82.20;;;;;;9175962;19;20018;-67
2022/02/07 17:08:17;;;;;;;17.70;2.88;;;7.90;82.20;;;;;;9174930;19;20418;-67
2022/02/07 17:11:23;;;;;;;10.93;2.13;;;7.80;82.20;;;;;;9176089;19;20010;-67
2022/02/07 17:14:28;;;;;;;9.63;1.60;;;7.80;82.20;;;;;;9166539;19;20765;-66
2022/02/07 17:17:36;;;;;;;11.43;2.38;;;7.80;82.30;;;;;;9164532;19;20021;-66
2022/02/07 17:20:41;;;;;;;9.32;2.35;;;7.80;82.20;;;;;;9168299;19;20023;-67
2022/02/07 17:23:46;;;;;;;11.00;2.80;;;7.80;82.20;;;;;;9170032;19;20019;-67
2022/02/07 17:26:51;;;;;;;14.07;2.63;;;7.80;82.20;;;;;;9169387;19;20601;-67
2022/02/07 17:29:56;;;;;;;12.73;1.80;;;7.80;82.20;;;;;;9165987;19;20019;-67
2022/02/07 17:33:04;;;;;;;15.27;2.28;;;7.80;82.30;;;;;;9168430;19;20018;-67
2022/02/07 17:36:11;;;;;;;14.23;1.90;;;7.80;82.20;;;;;;9168453;19;20029;-67
2022/02/07 17:39:16;;;;;;;9.52;1.90;;;7.70;82.20;;;;;;9171042;19;20021;-67
2022/02/07 17:42:26;;;;;;;13.13;2.30;;;7.70;82.20;;;;;;9169278;19;20479;-67
2022/02/07 17:45:31;;;;;;;12.02;2.60;;;7.70;82.20;;;;;;9163071;19;20479;-66